sensor_id;sensor_type;location;lat;lon;timestamp;pressure;altitude;pressure_sealevel;temperature;humidity
40946;BME280;55635;50.264;11.918;2023-07-08T00:00:20;96041.88;;;17.79;61.28
40946;BME280;55635;50.264;11.918;2023-07-08T00:03:04;96041.09;;;17.72;60.73
40946;BME280;55635;50.264;11.918;2023-07-08T00:05:46;96034.72;;;17.73;60.88
40946;BME280;55635;50.264;11.918;2023-07-08T00:08:27;96035.31;;;17.75;61.24
40946;BME280;55635;50.264;11.918;2023-07-08T00:11:11;96033.69;;;17.92;60.29
40946;BME280;55635;50.264;11.918;2023-07-08T00:13:52;96027.31;;;17.93;60.17
40946;BME280;55635;50.264;11.918;2023-07-08T00:16:34;96031.41;;;17.96;59.93
40946;BME280;55635;50.264;11.918;2023-07-08T00:19:16;96024.47;;;17.88;60.29
40946;BME280;55635;50.264;11.918;2023-07-08T00:21:59;96025.06;;;17.90;58.60
40946;BME280;55635;50.264;11.918;2023-07-08T00:24:42;96028.56;;;17.91;59.14
40946;BME280;55635;50.264;11.918;2023-07-08T00:27:23;96026.97;;;17.83;57.94
40946;BME280;55635;50.264;11.918;2023-07-08T00:30:34;96021.59;;;17.83;57.88
40946;BME280;55635;50.264;11.918;2023-07-08T00:33:15;96014.44;;;17.77;57.73
40946;BME280;55635;50.264;11.918;2023-07-08T00:35:57;96015.56;;;17.70;58.31
40946;BME280;55635;50.264;11.918;2023-07-08T00:38:38;96017.59;;;17.68;57.95
40946;BME280;55635;50.264;11.918;2023-07-08T00:41:35;96010.63;;;17.67;57.85
40946;BME280;55635;50.264;11.918;2023-07-08T00:44:17;96003.91;;;17.58;58.92
40946;BME280;55635;50.264;11.918;2023-07-08T00:47:04;96000.59;;;17.56;58.74
40946;BME280;55635;50.264;11.918;2023-07-08T00:49:57;96013.34;;;17.60;59.15
40946;BME280;55635;50.264;11.918;2023-07-08T00:52:42;96015.84;;;17.55;58.43
40946;BME280;55635;50.264;11.918;2023-07-08T00:55:22;96024.75;;;17.49;59.30
40946;BME280;55635;50.264;11.918;2023-07-08T00:58:03;96012.41;;;17.48;59.42
40946;BME280;55635;50.264;11.918;2023-07-08T01:00:44;96011.56;;;17.48;59.78
40946;BME280;55635;50.264;11.918;2023-07-08T01:03:26;96012.44;;;17.41;59.04
40946;BME280;55635;50.264;11.918;2023-07-08T01:06:08;96012.06;;;17.38;58.78
40946;BME280;55635;50.264;11.918;2023-07-08T01:08:49;96008.13;;;17.09;59.71
40946;BME280;55635;50.264;11.918;2023-07-08T01:11:36;96011.19;;;16.81;60.84
40946;BME280;55635;50.264;11.918;2023-07-08T01:14:20;96019.66;;;16.72;61.79
40946;BME280;55635;50.264;11.918;2023-07-08T01:17:02;96021.69;;;16.76;60.89
40946;BME280;55635;50.264;11.918;2023-07-08T01:19:44;96017.41;;;16.69;61.47
40946;BME280;55635;50.264;11.918;2023-07-08T01:22:25;96023.19;;;16.66;61.67
40946;BME280;55635;50.264;11.918;2023-07-08T01:25:10;96007.13;;;16.66;61.10
40946;BME280;55635;50.264;11.918;2023-07-08T01:27:57;96021.09;;;16.74;61.27
40946;BME280;55635;50.264;11.918;2023-07-08T01:30:41;96002.81;;;16.65;61.41
40946;BME280;55635;50.264;11.918;2023-07-08T01:33:23;96014.34;;;16.65;59.34
40946;BME280;55635;50.264;11.918;2023-07-08T01:36:05;96007.75;;;16.61;60.27
40946;BME280;55635;50.264;11.918;2023-07-08T01:38:46;96005.50;;;16.52;59.84
40946;BME280;55635;50.264;11.918;2023-07-08T01:41:27;95996.09;;;16.36;59.56
40946;BME280;55635;50.264;11.918;2023-07-08T01:44:35;96006.34;;;16.46;60.03
40946;BME280;55635;50.264;11.918;2023-07-08T01:47:20;96015.84;;;16.42;60.04
40946;BME280;55635;50.264;11.918;2023-07-08T01:50:03;96011.13;;;16.37;60.08
40946;BME280;55635;50.264;11.918;2023-07-08T01:52:44;96007.84;;;16.35;59.94
40946;BME280;55635;50.264;11.918;2023-07-08T01:55:26;96005.75;;;16.44;61.00
40946;BME280;55635;50.264;11.918;2023-07-08T01:58:11;96008.19;;;16.45;60.92
40946;BME280;55635;50.264;11.918;2023-07-08T02:00:52;96001.41;;;16.49;60.46
40946;BME280;55635;50.264;11.918;2023-07-08T02:03:34;95997.97;;;16.36;61.29
40946;BME280;55635;50.264;11.918;2023-07-08T02:06:15;96006.63;;;16.31;60.73
40946;BME280;55635;50.264;11.918;2023-07-08T02:08:56;95999.84;;;16.22;60.87
40946;BME280;55635;50.264;11.918;2023-07-08T02:11:39;95999.69;;;16.04;62.73
40946;BME280;55635;50.264;11.918;2023-07-08T02:14:20;96002.38;;;15.97;62.87
40946;BME280;55635;50.264;11.918;2023-07-08T02:17:02;96001.19;;;15.87;62.66
40946;BME280;55635;50.264;11.918;2023-07-08T02:19:46;96005.28;;;15.89;61.29
40946;BME280;55635;50.264;11.918;2023-07-08T02:22:28;96004.88;;;15.86;61.50
40946;BME280;55635;50.264;11.918;2023-07-08T02:25:09;95988.22;;;15.77;61.52
40946;BME280;55635;50.264;11.918;2023-07-08T02:27:51;96004.88;;;15.86;63.24
40946;BME280;55635;50.264;11.918;2023-07-08T02:30:33;96008.97;;;15.95;63.36
40946;BME280;55635;50.264;11.918;2023-07-08T02:33:14;96003.81;;;15.93;62.37
40946;BME280;55635;50.264;11.918;2023-07-08T02:35:58;96010.41;;;15.97;62.83
40946;BME280;55635;50.264;11.918;2023-07-08T02:38:40;96016.78;;;15.96;63.39
40946;BME280;55635;50.264;11.918;2023-07-08T02:41:23;96019.50;;;15.90;63.67
40946;BME280;55635;50.264;11.918;2023-07-08T02:44:04;96022.94;;;15.97;62.46
40946;BME280;55635;50.264;11.918;2023-07-08T02:46:46;96022.13;;;15.96;62.49
40946;BME280;55635;50.264;11.918;2023-07-08T02:49:27;96008.56;;;15.85;62.82
40946;BME280;55635;50.264;11.918;2023-07-08T02:52:08;96017.84;;;15.89;63.82
40946;BME280;55635;50.264;11.918;2023-07-08T02:54:49;96021.09;;;15.91;63.89
40946;BME280;55635;50.264;11.918;2023-07-08T02:57:31;96022.97;;;15.90;63.33
40946;BME280;55635;50.264;11.918;2023-07-08T03:00:13;96029.56;;;15.81;63.80
40946;BME280;55635;50.264;11.918;2023-07-08T03:02:54;96005.72;;;15.73;63.64
40946;BME280;55635;50.264;11.918;2023-07-08T03:05:35;96016.00;;;15.83;63.50
40946;BME280;55635;50.264;11.918;2023-07-08T03:08:16;96023.00;;;15.77;63.71
40946;BME280;55635;50.264;11.918;2023-07-08T03:11:03;96028.94;;;15.46;63.80
40946;BME280;55635;50.264;11.918;2023-07-08T03:13:45;96036.13;;;15.39;64.21
40946;BME280;55635;50.264;11.918;2023-07-08T03:16:25;96037.78;;;15.40;63.86
40946;BME280;55635;50.264;11.918;2023-07-08T03:19:10;96030.41;;;15.49;63.22
40946;BME280;55635;50.264;11.918;2023-07-08T03:21:51;96010.44;;;15.32;64.83
40946;BME280;55635;50.264;11.918;2023-07-08T03:24:33;96037.81;;;15.53;63.35
40946;BME280;55635;50.264;11.918;2023-07-08T03:27:16;96018.06;;;15.54;63.04
40946;BME280;55635;50.264;11.918;2023-07-08T03:29:58;96028.34;;;15.70;63.30
40946;BME280;55635;50.264;11.918;2023-07-08T03:32:40;96027.09;;;15.73;63.21
40946;BME280;55635;50.264;11.918;2023-07-08T03:35:21;96032.25;;;15.74;64.63
40946;BME280;55635;50.264;11.918;2023-07-08T03:38:03;96033.09;;;15.68;64.21
40946;BME280;55635;50.264;11.918;2023-07-08T03:40:44;96043.13;;;15.60;64.54
40946;BME280;55635;50.264;11.918;2023-07-08T03:43:25;96032.63;;;15.45;64.53
40946;BME280;55635;50.264;11.918;2023-07-08T03:46:16;96028.34;;;15.57;64.41
40946;BME280;55635;50.264;11.918;2023-07-08T03:48:57;96037.78;;;15.60;64.11
40946;BME280;55635;50.264;11.918;2023-07-08T03:51:40;96035.94;;;15.60;64.12
40946;BME280;55635;50.264;11.918;2023-07-08T03:54:24;96042.31;;;15.66;63.75
40946;BME280;55635;50.264;11.918;2023-07-08T03:57:06;96044.78;;;15.54;64.80
40946;BME280;55635;50.264;11.918;2023-07-08T03:59:48;96039.88;;;15.77;63.57
40946;BME280;55635;50.264;11.918;2023-07-08T04:02:29;96047.06;;;15.70;65.03
40946;BME280;55635;50.264;11.918;2023-07-08T04:05:18;96045.63;;;15.74;64.55
40946;BME280;55635;50.264;11.918;2023-07-08T04:07:59;96049.50;;;15.78;65.16
40946;BME280;55635;50.264;11.918;2023-07-08T04:10:40;96054.25;;;15.83;65.22
40946;BME280;55635;50.264;11.918;2023-07-08T04:13:21;96037.38;;;15.63;65.19
40946;BME280;55635;50.264;11.918;2023-07-08T04:16:05;96052.59;;;15.82;65.35
40946;BME280;55635;50.264;11.918;2023-07-08T04:18:46;96058.16;;;15.81;65.62
40946;BME280;55635;50.264;11.918;2023-07-08T04:21:27;96065.75;;;15.90;67.52
40946;BME280;55635;50.264;11.918;2023-07-08T04:24:10;96068.66;;;15.95;66.35
40946;BME280;55635;50.264;11.918;2023-07-08T04:26:52;96066.16;;;16.07;66.03
40946;BME280;55635;50.264;11.918;2023-07-08T04:29:33;96069.44;;;16.15;66.58
40946;BME280;55635;50.264;11.918;2023-07-08T04:32:15;96071.69;;;16.25;65.33
40946;BME280;55635;50.264;11.918;2023-07-08T04:34:56;96067.31;;;16.37;65.24
40946;BME280;55635;50.264;11.918;2023-07-08T04:37:37;96070.59;;;16.46;64.92
40946;BME280;55635;50.264;11.918;2023-07-08T04:40:20;96064.00;;;16.55;65.29
40946;BME280;55635;50.264;11.918;2023-07-08T04:43:01;96061.28;;;16.68;64.97
40946;BME280;55635;50.264;11.918;2023-07-08T04:45:46;96061.28;;;16.74;65.96
40946;BME280;55635;50.264;11.918;2023-07-08T04:48:27;96057.75;;;16.80;66.42
40946;BME280;55635;50.264;11.918;2023-07-08T04:51:08;96062.03;;;16.88;65.11
40946;BME280;55635;50.264;11.918;2023-07-08T04:53:49;96066.31;;;16.96;64.83
40946;BME280;55635;50.264;11.918;2023-07-08T04:56:44;96044.41;;;17.12;64.74
40946;BME280;55635;50.264;11.918;2023-07-08T04:59:25;96067.66;;;17.18;64.77
40946;BME280;55635;50.264;11.918;2023-07-08T05:02:06;96056.84;;;17.31;64.80
40946;BME280;55635;50.264;11.918;2023-07-08T05:04:47;96055.34;;;17.41;64.21
40946;BME280;55635;50.264;11.918;2023-07-08T05:07:28;96052.59;;;17.55;63.71
40946;BME280;55635;50.264;11.918;2023-07-08T05:10:09;96045.31;;;17.62;65.46
40946;BME280;55635;50.264;11.918;2023-07-08T05:12:50;96059.22;;;17.77;66.03
40946;BME280;55635;50.264;11.918;2023-07-08T05:15:31;96062.13;;;17.75;67.26
40946;BME280;55635;50.264;11.918;2023-07-08T05:18:12;96063.59;;;17.96;67.06
40946;BME280;55635;50.264;11.918;2023-07-08T05:20:53;96067.25;;;18.02;67.58
40946;BME280;55635;50.264;11.918;2023-07-08T05:23:35;96066.06;;;18.22;69.19
40946;BME280;55635;50.264;11.918;2023-07-08T05:26:17;96050.03;;;18.34;67.62
40946;BME280;55635;50.264;11.918;2023-07-08T05:28:58;96059.53;;;18.55;67.75
40946;BME280;55635;50.264;11.918;2023-07-08T05:31:39;96068.72;;;18.65;69.77
40946;BME280;55635;50.264;11.918;2023-07-08T05:34:20;96060.13;;;18.75;69.91
40946;BME280;55635;50.264;11.918;2023-07-08T05:37:01;96051.41;;;18.79;69.84
40946;BME280;55635;50.264;11.918;2023-07-08T05:39:42;96052.41;;;18.96;68.65
40946;BME280;55635;50.264;11.918;2023-07-08T05:42:24;96044.53;;;19.13;67.87
40946;BME280;55635;50.264;11.918;2023-07-08T05:45:06;96040.53;;;19.34;58.18
40946;BME280;55635;50.264;11.918;2023-07-08T05:47:50;96021.66;;;19.52;58.42
40946;BME280;55635;50.264;11.918;2023-07-08T05:50:31;96025.78;;;19.66;57.84
40946;BME280;55635;50.264;11.918;2023-07-08T05:53:14;96023.47;;;19.81;57.55
40946;BME280;55635;50.264;11.918;2023-07-08T05:55:54;96027.69;;;20.00;56.95
40946;BME280;55635;50.264;11.918;2023-07-08T05:58:35;96020.78;;;20.16;55.92
40946;BME280;55635;50.264;11.918;2023-07-08T06:01:16;96022.44;;;20.29;55.79
40946;BME280;55635;50.264;11.918;2023-07-08T06:03:58;96016.22;;;20.40;55.58
40946;BME280;55635;50.264;11.918;2023-07-08T06:06:39;96020.53;;;20.52;54.56
40946;BME280;55635;50.264;11.918;2023-07-08T06:09:20;96032.06;;;20.88;53.95
40946;BME280;55635;50.264;11.918;2023-07-08T06:12:02;96018.63;;;21.04;53.93
40946;BME280;55635;50.264;11.918;2023-07-08T06:14:43;96034.66;;;21.23;51.63
40946;BME280;55635;50.264;11.918;2023-07-08T06:17:23;96028.19;;;21.52;52.05
40946;BME280;55635;50.264;11.918;2023-07-08T06:20:05;96036.88;;;22.20;49.53
40946;BME280;55635;50.264;11.918;2023-07-08T06:22:46;96015.31;;;22.81;46.41
40946;BME280;55635;50.264;11.918;2023-07-08T06:25:27;96017.59;;;23.96;45.35
40946;BME280;55635;50.264;11.918;2023-07-08T06:28:08;96036.78;;;24.21;43.80
40946;BME280;55635;50.264;11.918;2023-07-08T06:30:49;96026.22;;;25.18;43.34
40946;BME280;55635;50.264;11.918;2023-07-08T06:33:30;96033.69;;;25.53;42.06
40946;BME280;55635;50.264;11.918;2023-07-08T06:36:11;96034.28;;;26.26;40.54
40946;BME280;55635;50.264;11.918;2023-07-08T06:38:52;96036.69;;;25.97;41.69
40946;BME280;55635;50.264;11.918;2023-07-08T06:41:33;96025.78;;;26.63;39.66
40946;BME280;55635;50.264;11.918;2023-07-08T06:44:14;96032.03;;;27.37;40.04
40946;BME280;55635;50.264;11.918;2023-07-08T06:46:55;96035.72;;;28.39;38.27
40946;BME280;55635;50.264;11.918;2023-07-08T06:49:36;96034.00;;;28.48;37.03
40946;BME280;55635;50.264;11.918;2023-07-08T06:52:16;96024.47;;;29.22;36.34
40946;BME280;55635;50.264;11.918;2023-07-08T06:54:57;96039.88;;;28.60;35.85
40946;BME280;55635;50.264;11.918;2023-07-08T06:57:38;96034.25;;;29.04;35.77
40946;BME280;55635;50.264;11.918;2023-07-08T07:00:19;96027.31;;;28.59;38.01
40946;BME280;55635;50.264;11.918;2023-07-08T07:03:03;96030.13;;;28.54;36.77
40946;BME280;55635;50.264;11.918;2023-07-08T07:05:44;96030.81;;;28.70;35.70
40946;BME280;55635;50.264;11.918;2023-07-08T07:08:25;96033.44;;;28.80;36.69
40946;BME280;55635;50.264;11.918;2023-07-08T07:11:06;96019.50;;;29.29;35.89
40946;BME280;55635;50.264;11.918;2023-07-08T07:13:47;96020.09;;;29.63;34.19
40946;BME280;55635;50.264;11.918;2023-07-08T07:16:28;96023.63;;;29.22;35.99
40946;BME280;55635;50.264;11.918;2023-07-08T07:19:09;96023.88;;;28.25;37.08
40946;BME280;55635;50.264;11.918;2023-07-08T07:21:50;96011.16;;;27.72;36.68
40946;BME280;55635;50.264;11.918;2023-07-08T07:24:31;96011.69;;;28.41;35.38
40946;BME280;55635;50.264;11.918;2023-07-08T07:27:12;96011.19;;;28.92;35.06
40946;BME280;55635;50.264;11.918;2023-07-08T07:29:53;96008.66;;;29.19;35.80
40946;BME280;55635;50.264;11.918;2023-07-08T07:32:34;96014.94;;;28.72;36.02
40946;BME280;55635;50.264;11.918;2023-07-08T07:35:15;95997.03;;;29.32;34.01
40946;BME280;55635;50.264;11.918;2023-07-08T07:37:57;96003.31;;;29.51;33.55
40946;BME280;55635;50.264;11.918;2023-07-08T07:40:39;95990.47;;;29.89;34.55
40946;BME280;55635;50.264;11.918;2023-07-08T07:43:21;95997.91;;;29.28;34.49
40946;BME280;55635;50.264;11.918;2023-07-08T07:46:02;95980.34;;;29.10;34.76
40946;BME280;55635;50.264;11.918;2023-07-08T07:48:46;95989.59;;;29.56;33.90
40946;BME280;55635;50.264;11.918;2023-07-08T07:51:26;95988.63;;;29.05;35.38
40946;BME280;55635;50.264;11.918;2023-07-08T07:54:07;95985.81;;;29.90;33.69
40946;BME280;55635;50.264;11.918;2023-07-08T07:56:48;95996.00;;;28.81;35.58
40946;BME280;55635;50.264;11.918;2023-07-08T07:59:29;96001.88;;;28.69;35.62
40946;BME280;55635;50.264;11.918;2023-07-08T08:02:10;95982.75;;;28.93;35.19
40946;BME280;55635;50.264;11.918;2023-07-08T08:04:52;95987.50;;;29.48;32.17
40946;BME280;55635;50.264;11.918;2023-07-08T08:07:33;96001.38;;;29.33;33.65
40946;BME280;55635;50.264;11.918;2023-07-08T08:10:15;95994.25;;;28.66;34.37
40946;BME280;55635;50.264;11.918;2023-07-08T08:12:55;95995.25;;;29.97;32.86
40946;BME280;55635;50.264;11.918;2023-07-08T08:15:36;95990.59;;;30.30;31.62
40946;BME280;55635;50.264;11.918;2023-07-08T08:18:18;96000.44;;;29.99;33.63
40946;BME280;55635;50.264;11.918;2023-07-08T08:20:59;96002.50;;;29.69;34.01
40946;BME280;55635;50.264;11.918;2023-07-08T08:23:40;96004.97;;;30.54;32.58
40946;BME280;55635;50.264;11.918;2023-07-08T08:26:21;96009.75;;;29.18;34.78
40946;BME280;55635;50.264;11.918;2023-07-08T08:29:02;96007.03;;;29.18;34.92
40946;BME280;55635;50.264;11.918;2023-07-08T08:31:43;96003.47;;;29.60;32.65
40946;BME280;55635;50.264;11.918;2023-07-08T08:34:24;96006.69;;;30.18;32.75
40946;BME280;55635;50.264;11.918;2023-07-08T08:37:05;96011.94;;;30.47;31.37
40946;BME280;55635;50.264;11.918;2023-07-08T08:39:46;95991.50;;;30.71;31.30
40946;BME280;55635;50.264;11.918;2023-07-08T08:42:46;95987.34;;;30.28;32.07
40946;BME280;55635;50.264;11.918;2023-07-08T08:45:39;96000.63;;;30.21;32.58
40946;BME280;55635;50.264;11.918;2023-07-08T08:48:22;96007.47;;;29.86;31.58
40946;BME280;55635;50.264;11.918;2023-07-08T08:51:13;95990.00;;;30.33;31.49
40946;BME280;55635;50.264;11.918;2023-07-08T08:53:57;95999.31;;;30.92;30.08
40946;BME280;55635;50.264;11.918;2023-07-08T08:59:55;96000.88;;;29.31;31.54
40946;BME280;55635;50.264;11.918;2023-07-08T09:03:01;96003.84;;;29.53;30.24
40946;BME280;55635;50.264;11.918;2023-07-08T09:05:46;96001.63;;;29.55;30.13
40946;BME280;55635;50.264;11.918;2023-07-08T09:08:34;95998.03;;;30.11;30.49
40946;BME280;55635;50.264;11.918;2023-07-08T09:11:59;96000.63;;;30.67;29.61
40946;BME280;55635;50.264;11.918;2023-07-08T09:14:43;95997.66;;;30.50;27.83
40946;BME280;55635;50.264;11.918;2023-07-08T09:17:31;95994.88;;;30.04;29.51
40946;BME280;55635;50.264;11.918;2023-07-08T09:20:23;95994.66;;;30.79;27.97
40946;BME280;55635;50.264;11.918;2023-07-08T09:23:20;95994.31;;;31.35;28.77
40946;BME280;55635;50.264;11.918;2023-07-08T09:26:11;95994.66;;;31.33;29.12
40946;BME280;55635;50.264;11.918;2023-07-08T09:28:54;95999.13;;;31.78;28.50
40946;BME280;55635;50.264;11.918;2023-07-08T09:31:39;95996.59;;;31.05;28.54
40946;BME280;55635;50.264;11.918;2023-07-08T09:34:37;95980.03;;;31.96;28.40
40946;BME280;55635;50.264;11.918;2023-07-08T09:37:35;95983.69;;;31.83;26.92
40946;BME280;55635;50.264;11.918;2023-07-08T09:40:32;95986.81;;;30.58;27.54
40946;BME280;55635;50.264;11.918;2023-07-08T09:43:25;96000.34;;;30.04;27.79
40946;BME280;55635;50.264;11.918;2023-07-08T09:46:12;95995.81;;;30.13;28.93
40946;BME280;55635;50.264;11.918;2023-07-08T09:48:53;95986.59;;;30.09;31.44
40946;BME280;55635;50.264;11.918;2023-07-08T09:51:34;96000.78;;;30.43;29.37
40946;BME280;55635;50.264;11.918;2023-07-08T09:54:19;95988.28;;;31.10;27.60
40946;BME280;55635;50.264;11.918;2023-07-08T09:57:05;95984.84;;;31.90;27.91
40946;BME280;55635;50.264;11.918;2023-07-08T09:59:57;95992.44;;;32.91;25.30
40946;BME280;55635;50.264;11.918;2023-07-08T10:02:51;95991.91;;;31.33;26.88
40946;BME280;55635;50.264;11.918;2023-07-08T10:05:38;96007.53;;;30.92;29.90
40946;BME280;55635;50.264;11.918;2023-07-08T10:08:23;95998.88;;;30.11;28.15
40946;BME280;55635;50.264;11.918;2023-07-08T10:14:17;95982.38;;;32.77;27.19
40946;BME280;55635;50.264;11.918;2023-07-08T10:17:01;95985.09;;;32.02;26.09
40946;BME280;55635;50.264;11.918;2023-07-08T10:19:42;95988.13;;;32.37;25.18
40946;BME280;55635;50.264;11.918;2023-07-08T10:22:51;95971.09;;;33.27;26.50
40946;BME280;55635;50.264;11.918;2023-07-08T10:25:52;95974.22;;;34.03;24.38
40946;BME280;55635;50.264;11.918;2023-07-08T10:29:18;95977.63;;;34.34;24.11
40946;BME280;55635;50.264;11.918;2023-07-08T10:32:36;95984.78;;;33.10;24.07
40946;BME280;55635;50.264;11.918;2023-07-08T10:35:33;95978.25;;;32.35;25.14
40946;BME280;55635;50.264;11.918;2023-07-08T10:45:26;95969.38;;;33.65;23.06
40946;BME280;55635;50.264;11.918;2023-07-08T11:06:52;95980.47;;;33.43;23.90
40946;BME280;55635;50.264;11.918;2023-07-08T11:09:49;95982.19;;;32.43;25.13
40946;BME280;55635;50.264;11.918;2023-07-08T11:12:42;95979.97;;;32.54;24.82
40946;BME280;55635;50.264;11.918;2023-07-08T11:19:31;95957.81;;;35.95;23.49
40946;BME280;55635;50.264;11.918;2023-07-08T11:22:14;95958.53;;;36.25;22.75
40946;BME280;55635;50.264;11.918;2023-07-08T11:24:57;95962.47;;;34.66;24.19
40946;BME280;55635;50.264;11.918;2023-07-08T11:27:40;95955.13;;;35.66;22.03
40946;BME280;55635;50.264;11.918;2023-07-08T11:30:30;95952.91;;;36.34;22.55
40946;BME280;55635;50.264;11.918;2023-07-08T11:33:12;95952.69;;;36.27;22.69
40946;BME280;55635;50.264;11.918;2023-07-08T11:35:56;95945.22;;;36.96;21.90
40946;BME280;55635;50.264;11.918;2023-07-08T11:38:48;95950.09;;;37.12;21.57
40946;BME280;55635;50.264;11.918;2023-07-08T11:41:31;95966.25;;;35.58;23.44
40946;BME280;55635;50.264;11.918;2023-07-08T11:44:13;95965.09;;;35.00;23.31
40946;BME280;55635;50.264;11.918;2023-07-08T11:46:55;95952.63;;;35.23;25.41
40946;BME280;55635;50.264;11.918;2023-07-08T11:49:36;95951.28;;;36.21;24.19
40946;BME280;55635;50.264;11.918;2023-07-08T11:52:20;95947.47;;;34.84;24.14
40946;BME280;55635;50.264;11.918;2023-07-08T11:55:20;95942.63;;;33.49;24.16
40946;BME280;55635;50.264;11.918;2023-07-08T11:58:01;95945.63;;;32.34;25.96
40946;BME280;55635;50.264;11.918;2023-07-08T12:00:42;95941.94;;;33.09;25.66
40946;BME280;55635;50.264;11.918;2023-07-08T12:03:47;95951.06;;;33.95;22.96
40946;BME280;55635;50.264;11.918;2023-07-08T12:09:27;95940.72;;;32.22;23.18
40946;BME280;55635;50.264;11.918;2023-07-08T12:12:31;95938.91;;;35.15;22.61
40946;BME280;55635;50.264;11.918;2023-07-08T12:15:29;95913.84;;;36.11;22.30
40946;BME280;55635;50.264;11.918;2023-07-08T12:18:14;95934.28;;;36.43;20.62
40946;BME280;55635;50.264;11.918;2023-07-08T12:21:00;95918.81;;;37.23;20.25
40946;BME280;55635;50.264;11.918;2023-07-08T12:23:46;95929.91;;;34.59;21.60
40946;BME280;55635;50.264;11.918;2023-07-08T12:26:27;95942.91;;;33.21;24.46
40946;BME280;55635;50.264;11.918;2023-07-08T12:29:12;95928.09;;;33.65;23.20
40946;BME280;55635;50.264;11.918;2023-07-08T12:31:54;95917.69;;;35.07;21.00
40946;BME280;55635;50.264;11.918;2023-07-08T12:34:35;95930.09;;;34.92;20.73
40946;BME280;55635;50.264;11.918;2023-07-08T12:37:16;95920.06;;;36.65;20.34
40946;BME280;55635;50.264;11.918;2023-07-08T12:39:57;95916.06;;;37.11;20.69
40946;BME280;55635;50.264;11.918;2023-07-08T12:42:45;95910.19;;;37.77;18.56
40946;BME280;55635;50.264;11.918;2023-07-08T12:45:29;95922.53;;;37.91;18.35
40946;BME280;55635;50.264;11.918;2023-07-08T12:48:11;95916.41;;;38.13;18.63
40946;BME280;55635;50.264;11.918;2023-07-08T12:50:52;95916.88;;;36.87;19.48
40946;BME280;55635;50.264;11.918;2023-07-08T12:53:32;95909.91;;;37.42;18.76
40946;BME280;55635;50.264;11.918;2023-07-08T12:56:15;95906.50;;;38.12;18.85
40946;BME280;55635;50.264;11.918;2023-07-08T12:58:57;95904.75;;;38.36;18.36
40946;BME280;55635;50.264;11.918;2023-07-08T13:01:40;95903.84;;;37.76;18.20
40946;BME280;55635;50.264;11.918;2023-07-08T13:04:21;95895.03;;;37.34;19.42
40946;BME280;55635;50.264;11.918;2023-07-08T13:07:03;95915.66;;;34.86;20.63
40946;BME280;55635;50.264;11.918;2023-07-08T13:09:45;95898.03;;;35.17;20.51
40946;BME280;55635;50.264;11.918;2023-07-08T13:12:26;95890.59;;;37.18;19.66
40946;BME280;55635;50.264;11.918;2023-07-08T13:15:20;95898.22;;;36.27;20.34
40946;BME280;55635;50.264;11.918;2023-07-08T13:18:02;95914.94;;;34.22;23.12
40946;BME280;55635;50.264;11.918;2023-07-08T13:20:50;95905.94;;;34.51;22.57
40946;BME280;55635;50.264;11.918;2023-07-08T13:23:32;95904.66;;;34.86;21.22
40946;BME280;55635;50.264;11.918;2023-07-08T13:26:20;95897.47;;;36.06;20.11
40946;BME280;55635;50.264;11.918;2023-07-08T13:29:13;95907.03;;;34.67;22.30
40946;BME280;55635;50.264;11.918;2023-07-08T13:32:05;95899.31;;;34.43;22.78
40946;BME280;55635;50.264;11.918;2023-07-08T13:34:49;95905.22;;;34.16;22.13
40946;BME280;55635;50.264;11.918;2023-07-08T13:37:31;95897.47;;;34.94;21.39
40946;BME280;55635;50.264;11.918;2023-07-08T13:40:12;95907.66;;;36.26;20.34
40946;BME280;55635;50.264;11.918;2023-07-08T13:42:53;95875.59;;;36.58;21.28
40946;BME280;55635;50.264;11.918;2023-07-08T13:45:34;95889.78;;;35.91;21.21
40946;BME280;55635;50.264;11.918;2023-07-08T13:48:33;95888.53;;;36.90;18.36
40946;BME280;55635;50.264;11.918;2023-07-08T13:51:16;95892.91;;;37.03;18.57
40946;BME280;55635;50.264;11.918;2023-07-08T13:54:34;95895.66;;;37.16;18.59
40946;BME280;55635;50.264;11.918;2023-07-08T13:57:21;95888.75;;;38.01;17.95
40946;BME280;55635;50.264;11.918;2023-07-08T14:00:05;95901.19;;;38.51;17.85
40946;BME280;55635;50.264;11.918;2023-07-08T14:02:52;95904.53;;;35.53;20.51
40946;BME280;55635;50.264;11.918;2023-07-08T14:05:33;95889.09;;;35.61;19.59
40946;BME280;55635;50.264;11.918;2023-07-08T14:08:17;95890.81;;;35.86;20.08
40946;BME280;55635;50.264;11.918;2023-07-08T14:11:02;95877.94;;;37.04;19.81
40946;BME280;55635;50.264;11.918;2023-07-08T14:13:43;95889.94;;;38.44;17.72
40946;BME280;55635;50.264;11.918;2023-07-08T14:16:29;95888.31;;;39.05;18.03
40946;BME280;55635;50.264;11.918;2023-07-08T14:19:32;95882.84;;;39.25;16.46
40946;BME280;55635;50.264;11.918;2023-07-08T14:24:58;95875.44;;;38.35;19.59
40946;BME280;55635;50.264;11.918;2023-07-08T14:27:41;95868.53;;;38.76;19.35
40946;BME280;55635;50.264;11.918;2023-07-08T14:30:22;95875.03;;;37.65;18.67
40946;BME280;55635;50.264;11.918;2023-07-08T14:33:03;95872.84;;;36.82;18.60
40946;BME280;55635;50.264;11.918;2023-07-08T14:35:44;95873.41;;;35.53;20.57
40946;BME280;55635;50.264;11.918;2023-07-08T14:38:25;95871.78;;;36.06;21.75
40946;BME280;55635;50.264;11.918;2023-07-08T14:41:05;95881.94;;;35.19;20.19
40946;BME280;55635;50.264;11.918;2023-07-08T14:43:47;95882.56;;;34.57;20.60
40946;BME280;55635;50.264;11.918;2023-07-08T14:46:28;95864.34;;;36.18;19.29
40946;BME280;55635;50.264;11.918;2023-07-08T14:49:16;95860.63;;;36.71;20.23
40946;BME280;55635;50.264;11.918;2023-07-08T14:51:57;95873.44;;;36.19;19.81
40946;BME280;55635;50.264;11.918;2023-07-08T14:54:38;95855.63;;;36.40;19.32
40946;BME280;55635;50.264;11.918;2023-07-08T14:57:32;95857.31;;;36.66;19.60
40946;BME280;55635;50.264;11.918;2023-07-08T15:00:17;95867.06;;;36.39;19.80